Time;durP1;ratioP1;P1;durP2;ratioP2;P2;SDS_P1;SDS_P2;PMS_P1;PMS_P2;Temp;Humidity;BMP_temperature;BMP_pressure;BME280_temperature;BME280_humidity;BME280_pressure;Samples;Min_cycle;Max_cycle;Signal;HPM_P1;HPM_P2
2021/12/16 00:04:02;;;;;;;15.13;11.10;;;6.20;99.90;;;;;;5001937;28;20431;-56
2021/12/16 00:07:02;;;;;;;15.07;12.70;;;6.20;99.90;;;;;;5012293;28;20549;-55
2021/12/16 00:09:39;;;;;;;16.50;12.37;;;6.20;99.90;;;;;;5012555;28;20458;-56
2021/12/16 00:31:28;;;;;;;12.77;10.27;;;6.10;99.90;;;;;;5012215;28;20553;-55
2021/12/16 00:34:01;;;;;;;12.53;10.67;;;6.20;99.90;;;;;;5013985;28;20435;-55
2021/12/16 00:36:31;;;;;;;11.40;10.17;;;6.10;99.90;;;;;;5015746;28;20463;-55
2021/12/16 00:38:58;;;;;;;12.27;10.10;;;6.00;99.90;;;;;;5016170;28;20537;-55
2021/12/16 00:41:26;;;;;;;13.00;10.43;;;6.10;99.90;;;;;;5015496;28;20479;-55
2021/12/16 00:44:00;;;;;;;14.80;11.70;;;6.00;99.90;;;;;;5015806;28;20529;-55
2021/12/16 00:46:55;;;;;;;14.37;12.00;;;5.90;99.90;;;;;;5015964;28;20427;-55
2021/12/16 00:49:32;;;;;;;12.83;10.90;;;5.80;99.90;;;;;;5015338;28;20478;-56
2021/12/16 00:54:52;;;;;;;14.93;11.73;;;5.80;99.90;;;;;;5015470;28;20821;-56
2021/12/16 00:57:20;;;;;;;12.80;11.40;;;5.90;99.90;;;;;;5015817;28;20427;-57
2021/12/16 00:59:50;;;;;;;15.33;11.47;;;5.90;99.90;;;;;;5015173;28;20504;-56
2021/12/16 01:02:35;;;;;;;14.87;11.70;;;5.90;99.90;;;;;;5015526;28;20435;-55
2021/12/16 01:05:21;;;;;;;15.20;10.70;;;5.90;99.90;;;;;;5015466;28;20435;-55
2021/12/16 01:08:12;;;;;;;14.70;10.77;;;6.00;99.90;;;;;;5015463;28;20435;-56
2021/12/16 01:35:44;;;;;;;15.60;10.90;;;6.10;99.90;;;;;;5014552;28;20466;-57
2021/12/16 01:46:56;;;;;;;16.30;11.53;;;6.30;99.90;;;;;;5013912;28;20399;-56
2021/12/16 01:49:47;;;;;;;13.67;11.83;;;6.30;99.90;;;;;;5014533;28;20432;-55
2021/12/16 01:52:39;;;;;;;15.07;12.77;;;6.30;99.90;;;;;;5014658;28;20440;-56
2021/12/16 01:55:12;;;;;;;14.70;10.73;;;6.30;99.90;;;;;;5014680;28;20533;-56
2021/12/16 01:57:43;;;;;;;15.33;12.90;;;6.40;99.90;;;;;;5014177;28;20470;-56
2021/12/16 02:00:15;;;;;;;14.50;11.60;;;6.30;99.90;;;;;;5014037;28;20828;-55
2021/12/16 02:02:49;;;;;;;13.70;12.00;;;6.20;99.90;;;;;;5014395;28;20474;-57
2021/12/16 02:05:32;;;;;;;14.87;11.27;;;6.10;99.90;;;;;;5014506;28;20520;-56
2021/12/16 02:11:10;;;;;;;18.33;12.23;;;6.10;99.90;;;;;;4989611;28;20529;-55
2021/12/16 02:27:16;;;;;;;16.70;12.50;;;6.10;99.90;;;;;;5014092;28;20771;-55
2021/12/16 02:39:07;;;;;;;13.37;9.73;;;6.30;99.90;;;;;;5110873;27;20580;-56
2021/12/16 02:41:37;;;;;;;14.33;11.70;;;6.20;99.90;;;;;;5110288;28;20806;-56
2021/12/16 02:44:15;;;;;;;17.77;11.47;;;6.30;99.90;;;;;;5111008;28;20529;-56
2021/12/16 02:49:29;;;;;;;13.43;10.77;;;6.40;99.90;;;;;;5110423;28;20402;-55
2021/12/16 02:51:57;;;;;;;10.90;9.40;;;6.40;99.90;;;;;;5110753;28;20438;-55
2021/12/16 02:54:27;;;;;;;12.97;10.70;;;6.30;99.90;;;;;;5110441;28;20439;-55
2021/12/16 02:56:55;;;;;;;11.43;10.13;;;6.40;99.90;;;;;;5110668;28;20857;-56
2021/12/16 02:59:27;;;;;;;14.07;10.80;;;6.30;99.90;;;;;;5110382;28;20431;-56
2021/12/16 03:01:55;;;;;;;13.77;10.33;;;6.20;99.90;;;;;;5110154;28;20427;-56
2021/12/16 03:04:25;;;;;;;13.70;11.80;;;6.20;99.90;;;;;;5110384;28;20937;-56
2021/12/16 03:06:56;;;;;;;14.60;11.00;;;6.10;99.90;;;;;;5110085;28;20454;-55
2021/12/16 03:09:51;;;;;;;17.00;13.80;;;6.20;99.90;;;;;;5110402;28;20454;-56
2021/12/16 03:12:40;;;;;;;15.17;11.93;;;6.20;99.90;;;;;;5110034;28;20439;-55
2021/12/16 03:15:17;;;;;;;14.77;12.60;;;6.20;99.90;;;;;;5109969;28;20446;-56
2021/12/16 03:17:53;;;;;;;14.30;11.00;;;6.20;99.90;;;;;;5109885;28;20462;-56
2021/12/16 03:20:29;;;;;;;18.00;13.43;;;6.30;99.90;;;;;;5110247;28;20831;-56
2021/12/16 03:23:09;;;;;;;15.07;11.53;;;6.20;99.90;;;;;;5110024;28;20513;-55
2021/12/16 03:25:49;;;;;;;16.93;11.43;;;6.40;99.90;;;;;;5109625;28;20434;-56
2021/12/16 03:28:39;;;;;;;22.13;12.27;;;6.40;99.90;;;;;;5109624;28;20423;-55
2021/12/16 03:31:32;;;;;;;17.80;12.77;;;6.30;99.90;;;;;;5109403;28;20470;-55
2021/12/16 03:39:52;;;;;;;14.93;10.40;;;6.30;99.90;;;;;;5103903;28;20443;-55
2021/12/16 03:42:22;;;;;;;11.80;10.50;;;6.40;99.90;;;;;;5109700;28;20433;-55
2021/12/16 03:44:55;;;;;;;15.40;11.83;;;6.20;99.90;;;;;;5109573;28;20423;-55
2021/12/16 03:47:30;;;;;;;14.83;10.80;;;6.10;99.90;;;;;;5109470;28;20420;-55
2021/12/16 03:49:57;;;;;;;17.10;11.63;;;6.20;99.90;;;;;;5098452;28;20507;-55
2021/12/16 03:52:24;;;;;;;16.30;12.37;;;6.30;99.90;;;;;;5095855;28;20439;-56
2021/12/16 03:54:55;;;;;;;11.40;10.27;;;6.30;99.90;;;;;;5095395;28;20851;-55
2021/12/16 03:57:24;;;;;;;12.60;9.80;;;6.40;99.90;;;;;;5095364;28;20528;-55
2021/12/16 03:59:53;;;;;;;15.77;11.40;;;6.30;99.90;;;;;;5095381;28;20504;-55
2021/12/16 04:02:24;;;;;;;14.77;11.27;;;6.40;99.90;;;;;;5095294;28;20447;-55
2021/12/16 04:04:52;;;;;;;14.07;11.67;;;6.40;99.90;;;;;;5095565;28;20461;-55
2021/12/16 04:07:22;;;;;;;17.63;12.23;;;6.50;99.90;;;;;;5095588;28;20447;-55
2021/12/16 04:09:50;;;;;;;15.60;12.33;;;6.40;99.90;;;;;;5095210;28;20989;-55
2021/12/16 04:12:20;;;;;;;20.80;14.67;;;6.30;99.90;;;;;;5095460;28;20988;-55
2021/12/16 04:14:49;;;;;;;17.70;11.93;;;6.20;99.90;;;;;;5095259;28;20447;-55
2021/12/16 04:17:20;;;;;;;16.20;11.30;;;6.20;99.90;;;;;;5095207;28;20465;-55
2021/12/16 04:19:47;;;;;;;15.87;12.73;;;6.30;99.90;;;;;;5095144;28;20464;-55
2021/12/16 04:22:17;;;;;;;14.53;11.17;;;6.30;99.90;;;;;;5094931;28;20424;-56
2021/12/16 04:24:48;;;;;;;15.13;11.40;;;6.40;99.90;;;;;;5095199;28;20496;-55
2021/12/16 04:27:16;;;;;;;16.53;11.33;;;6.40;99.90;;;;;;5095235;28;20454;-54
2021/12/16 04:29:45;;;;;;;18.70;12.27;;;6.40;99.90;;;;;;5094643;28;20532;-54
2021/12/16 04:32:12;;;;;;;18.80;12.70;;;6.30;99.90;;;;;;5095084;28;20447;-54
2021/12/16 04:34:41;;;;;;;15.33;11.77;;;6.40;99.90;;;;;;5095182;28;20452;-54
2021/12/16 04:37:08;;;;;;;19.63;14.00;;;6.40;99.90;;;;;;5094503;28;20486;-54
2021/12/16 04:39:39;;;;;;;18.37;12.40;;;6.40;99.90;;;;;;5094596;28;20443;-54
2021/12/16 04:42:08;;;;;;;20.07;13.13;;;6.40;99.90;;;;;;5094728;28;20477;-54
2021/12/16 04:44:35;;;;;;;18.60;14.33;;;6.20;99.90;;;;;;5094786;28;20447;-54
2021/12/16 04:47:05;;;;;;;19.30;13.30;;;6.20;99.90;;;;;;5094681;28;20446;-54
2021/12/16 04:49:33;;;;;;;18.53;13.53;;;6.30;99.90;;;;;;5094726;28;20454;-54
2021/12/16 04:52:05;;;;;;;24.77;15.03;;;6.40;99.90;;;;;;5094455;28;20901;-54
2021/12/16 04:54:32;;;;;;;21.37;14.83;;;6.20;99.90;;;;;;5094285;28;20432;-54
2021/12/16 04:57:01;;;;;;;21.40;15.67;;;6.20;99.90;;;;;;5094496;28;20447;-54
2021/12/16 04:59:29;;;;;;;18.50;13.43;;;6.20;99.90;;;;;;5094376;28;20558;-54
2021/12/16 05:01:59;;;;;;;20.63;14.77;;;6.20;99.90;;;;;;5093198;28;20447;-54
2021/12/16 05:04:27;;;;;;;22.93;17.43;;;6.20;99.90;;;;;;5094039;28;20447;-54
2021/12/16 05:06:54;;;;;;;22.53;15.07;;;6.30;99.90;;;;;;5094149;28;20902;-54
2021/12/16 05:12:05;;;;;;;22.40;16.10;;;6.10;99.90;;;;;;5091357;28;20518;-54
2021/12/16 05:14:32;;;;;;;25.53;15.57;;;6.10;99.90;;;;;;5093889;28;20956;-54
2021/12/16 05:17:00;;;;;;;25.10;15.90;;;6.10;99.90;;;;;;5093940;28;20539;-54
2021/12/16 05:19:27;;;;;;;25.97;17.10;;;6.10;99.90;;;;;;5093517;28;20813;-54
2021/12/16 05:21:59;;;;;;;24.47;15.90;;;6.10;99.90;;;;;;5093942;28;20444;-54
2021/12/16 05:24:27;;;;;;;23.47;15.93;;;6.10;99.90;;;;;;5094098;28;20432;-54
2021/12/16 05:26:56;;;;;;;21.50;14.77;;;6.00;99.90;;;;;;5094002;28;20444;-54
2021/12/16 05:29:24;;;;;;;25.60;16.30;;;6.00;99.90;;;;;;5093703;28;20443;-54
2021/12/16 05:31:52;;;;;;;26.17;15.23;;;6.20;99.90;;;;;;5093651;28;20439;-54
2021/12/16 05:34:20;;;;;;;25.20;17.27;;;6.20;99.90;;;;;;5093867;28;20530;-54
2021/12/16 05:36:47;;;;;;;24.60;16.20;;;6.00;99.90;;;;;;5093139;28;20443;-54
2021/12/16 05:39:16;;;;;;;26.30;17.40;;;6.00;99.90;;;;;;5093654;28;20585;-54
2021/12/16 05:41:45;;;;;;;23.43;15.50;;;6.10;99.90;;;;;;5093731;28;20460;-54
2021/12/16 05:44:12;;;;;;;22.83;15.00;;;6.10;99.90;;;;;;5093356;28;20514;-54
2021/12/16 05:46:40;;;;;;;20.70;14.70;;;6.10;99.90;;;;;;5093429;28;20443;-56
2021/12/16 05:49:10;;;;;;;24.07;13.80;;;6.20;99.90;;;;;;5093519;28;20471;-55
2021/12/16 05:51:40;;;;;;;20.20;14.20;;;6.20;99.90;;;;;;5093499;28;20475;-55
2021/12/16 05:54:08;;;;;;;24.40;14.93;;;6.20;99.90;;;;;;5093313;28;20454;-55
2021/12/16 05:56:37;;;;;;;22.47;14.07;;;6.10;99.90;;;;;;5093030;28;20554;-55
2021/12/16 05:59:07;;;;;;;19.10;12.93;;;6.20;99.90;;;;;;5093448;28;20511;-55
2021/12/16 06:01:36;;;;;;;18.53;13.10;;;6.20;99.90;;;;;;5093004;28;20490;-55
2021/12/16 06:04:04;;;;;;;20.00;14.70;;;6.20;99.90;;;;;;5093342;28;20535;-54
2021/12/16 06:06:32;;;;;;;21.00;12.63;;;6.30;99.90;;;;;;5093353;28;20478;-54
2021/12/16 06:09:00;;;;;;;16.17;11.50;;;6.30;99.90;;;;;;5093044;28;20427;-55
2021/12/16 06:11:31;;;;;;;19.43;12.63;;;6.30;99.90;;;;;;5092659;28;20506;-55
2021/12/16 06:14:06;;;;;;;14.53;11.40;;;6.50;99.90;;;;;;5092826;28;20609;-54
2021/12/16 06:22:32;;;;;;;20.37;13.10;;;6.40;99.90;;;;;;5092863;28;20437;-54
2021/12/16 06:27:50;;;;;;;22.80;13.37;;;6.60;99.90;;;;;;5092887;28;20510;-55
2021/12/16 06:30:20;;;;;;;23.53;13.83;;;6.40;99.90;;;;;;5092575;28;21009;-54
2021/12/16 06:32:49;;;;;;;16.80;13.07;;;6.40;99.90;;;;;;5092240;28;20458;-54
2021/12/16 06:35:18;;;;;;;20.20;13.33;;;6.40;99.90;;;;;;5092668;28;20448;-55
2021/12/16 06:37:45;;;;;;;16.70;11.40;;;6.40;99.90;;;;;;5092196;28;21023;-54
2021/12/16 06:40:14;;;;;;;18.40;13.00;;;6.60;99.90;;;;;;5092443;28;20473;-54
2021/12/16 06:42:42;;;;;;;24.07;15.53;;;6.60;99.90;;;;;;5092746;28;20451;-55
2021/12/16 06:45:14;;;;;;;20.03;13.43;;;6.50;99.90;;;;;;5092675;28;20501;-55
2021/12/16 06:47:45;;;;;;;22.07;14.97;;;6.50;99.90;;;;;;5092539;28;20493;-55
2021/12/16 06:50:25;;;;;;;21.50;13.40;;;6.50;99.90;;;;;;5092186;28;20798;-55
2021/12/16 06:52:56;;;;;;;21.50;16.23;;;6.60;99.90;;;;;;5092196;28;20477;-55
2021/12/16 06:55:31;;;;;;;21.03;14.17;;;6.50;99.90;;;;;;5092381;28;20933;-55
2021/12/16 06:58:09;;;;;;;20.70;14.70;;;6.50;99.90;;;;;;5092193;28;20435;-55
2021/12/16 07:00:41;;;;;;;19.90;14.30;;;6.60;99.90;;;;;;5092319;28;20520;-55
2021/12/16 07:03:17;;;;;;;19.90;13.53;;;6.60;99.90;;;;;;5092295;28;20845;-54
2021/12/16 07:05:49;;;;;;;21.10;15.10;;;6.50;99.90;;;;;;5092156;28;20511;-54
2021/12/16 07:08:19;;;;;;;23.33;14.70;;;6.50;99.90;;;;;;5092394;28;20542;-57
2021/12/16 07:10:48;;;;;;;21.07;15.40;;;6.30;99.90;;;;;;5092225;28;20806;-54
2021/12/16 07:13:19;;;;;;;19.17;13.93;;;6.40;99.90;;;;;;5092142;28;20478;-55
2021/12/16 07:15:47;;;;;;;20.73;14.27;;;6.30;99.90;;;;;;5091990;28;20898;-55
2021/12/16 07:18:15;;;;;;;21.57;13.10;;;6.40;99.90;;;;;;5092075;28;20578;-55
2021/12/16 07:20:46;;;;;;;19.97;13.80;;;6.50;99.90;;;;;;5091918;28;20563;-54
2021/12/16 07:23:13;;;;;;;22.00;14.60;;;6.50;99.90;;;;;;5091699;28;20495;-55
2021/12/16 07:25:41;;;;;;;18.93;13.20;;;6.60;99.90;;;;;;5094837;28;20947;-55
2021/12/16 07:28:09;;;;;;;19.63;13.20;;;6.60;99.90;;;;;;5096043;28;20494;-55
2021/12/16 07:30:38;;;;;;;22.33;14.00;;;6.60;99.90;;;;;;5095910;28;20522;-55
2021/12/16 07:33:06;;;;;;;20.37;14.10;;;6.50;99.90;;;;;;5095447;28;20926;-54
2021/12/16 07:35:35;;;;;;;20.23;14.33;;;6.60;99.90;;;;;;5095650;28;20479;-55
2021/12/16 07:38:05;;;;;;;20.00;13.00;;;6.70;99.90;;;;;;5095261;28;20483;-55
2021/12/16 07:40:33;;;;;;;21.17;15.03;;;6.60;99.90;;;;;;5095384;28;21009;-55
2021/12/16 07:43:11;;;;;;;21.50;15.77;;;6.50;99.90;;;;;;5095689;28;20955;-54
2021/12/16 07:45:41;;;;;;;22.40;14.57;;;6.40;99.90;;;;;;5095374;28;20433;-54
2021/12/16 07:48:09;;;;;;;21.03;14.00;;;6.60;99.90;;;;;;5095297;28;20447;-54
2021/12/16 07:50:39;;;;;;;21.60;14.57;;;6.60;99.90;;;;;;5095238;28;20463;-54
2021/12/16 07:53:07;;;;;;;20.43;15.30;;;6.50;99.90;;;;;;5095569;28;20812;-55
2021/12/16 07:55:35;;;;;;;19.43;12.80;;;6.70;99.90;;;;;;5095518;28;20451;-54
2021/12/16 07:58:02;;;;;;;20.57;13.33;;;6.70;99.90;;;;;;5095308;28;20501;-55
2021/12/16 08:00:33;;;;;;;16.57;13.30;;;6.60;99.90;;;;;;5094723;28;20932;-54
2021/12/16 08:03:01;;;;;;;18.63;13.40;;;6.60;99.90;;;;;;5094852;28;20432;-55
2021/12/16 08:05:29;;;;;;;19.23;12.23;;;6.60;99.90;;;;;;5095379;28;20471;-55
2021/12/16 08:07:56;;;;;;;19.73;11.60;;;6.80;99.90;;;;;;5095232;28;20452;-55
2021/12/16 08:10:25;;;;;;;18.93;13.37;;;;;;;;;;5094769;28;20464;-54
2021/12/16 08:12:54;;;;;;;18.20;11.53;;;6.80;99.90;;;;;;5094861;28;20930;-55
2021/12/16 08:15:22;;;;;;;19.40;13.17;;;6.70;99.90;;;;;;5094759;28;20451;-55
2021/12/16 08:17:49;;;;;;;16.37;11.30;;;6.90;99.90;;;;;;5094655;28;20447;-55
2021/12/16 08:20:18;;;;;;;15.77;11.47;;;6.90;99.90;;;;;;5094454;28;20571;-55
2021/12/16 08:22:47;;;;;;;18.57;11.90;;;6.90;99.90;;;;;;5094438;28;20447;-54
2021/12/16 08:25:15;;;;;;;17.50;10.73;;;6.80;99.90;;;;;;5094810;28;20482;-55
2021/12/16 08:27:45;;;;;;;17.87;12.47;;;6.90;99.90;;;;;;5094930;28;20526;-55
2021/12/16 08:30:15;;;;;;;19.77;13.00;;;6.90;99.90;;;;;;5094829;28;20463;-55
2021/12/16 08:32:43;;;;;;;20.17;13.30;;;7.00;99.90;;;;;;5094042;28;20558;-55
2021/12/16 08:35:12;;;;;;;18.43;12.33;;;6.90;99.90;;;;;;5094401;28;20520;-55
2021/12/16 08:37:39;;;;;;;17.70;11.90;;;6.80;99.90;;;;;;5092691;28;20985;-54
2021/12/16 08:40:09;;;;;;;21.90;13.67;;;6.80;99.90;;;;;;5094323;28;20635;-54
2021/12/16 08:42:36;;;;;;;16.57;11.90;;;6.90;99.90;;;;;;5094068;28;20448;-55
2021/12/16 08:45:06;;;;;;;17.63;11.10;;;6.80;99.90;;;;;;5094466;28;20497;-54
2021/12/16 08:47:34;;;;;;;15.97;11.50;;;7.10;99.90;;;;;;5093948;28;20458;-55
2021/12/16 08:50:01;;;;;;;16.00;11.50;;;7.30;99.90;;;;;;5093749;28;20460;-54
2021/12/16 08:52:28;;;;;;;17.77;11.20;;;7.50;99.90;;;;;;5093835;28;20451;-55
2021/12/16 08:54:55;;;;;;;17.27;11.70;;;7.50;99.90;;;;;;5094010;28;20447;-54
2021/12/16 08:57:23;;;;;;;18.80;12.27;;;7.40;99.90;;;;;;5094201;28;20539;-55
2021/12/16 08:59:50;;;;;;;16.67;12.70;;;7.30;99.90;;;;;;5094023;28;20494;-54
2021/12/16 09:02:19;;;;;;;18.80;13.20;;;7.30;99.90;;;;;;5094130;28;20452;-55
2021/12/16 09:04:47;;;;;;;17.07;10.47;;;7.20;99.90;;;;;;5093814;28;20458;-55
2021/12/16 09:07:15;;;;;;;19.00;12.23;;;7.30;99.90;;;;;;5093930;28;20520;-54
2021/12/16 09:09:45;;;;;;;17.07;11.97;;;7.40;99.90;;;;;;5094154;28;20470;-54
2021/12/16 09:12:37;;;;;;;18.47;12.57;;;7.50;99.90;;;;;;5093849;28;20448;-55
2021/12/16 09:15:07;;;;;;;15.40;10.80;;;7.60;99.90;;;;;;5093759;28;20440;-55
2021/12/16 09:17:35;;;;;;;15.60;11.13;;;7.60;99.90;;;;;;5094128;28;20427;-54
2021/12/16 09:20:04;;;;;;;14.80;10.73;;;7.70;99.90;;;;;;5093613;28;20479;-54
2021/12/16 09:22:32;;;;;;;16.07;12.20;;;7.70;99.90;;;;;;5094138;28;20534;-55
2021/12/16 09:24:59;;;;;;;20.00;13.27;;;7.70;99.90;;;;;;5093665;28;20443;-55
2021/12/16 09:27:28;;;;;;;21.40;12.87;;;7.60;99.90;;;;;;5093211;28;20500;-55
2021/12/16 09:29:56;;;;;;;20.63;13.70;;;7.50;99.90;;;;;;5093415;28;20467;-54
2021/12/16 09:32:26;;;;;;;21.87;13.60;;;7.50;99.90;;;;;;5093304;28;20443;-54
2021/12/16 09:34:55;;;;;;;21.33;13.33;;;7.50;99.90;;;;;;5093282;28;20428;-54
2021/12/16 09:37:23;;;;;;;21.20;14.73;;;7.50;99.90;;;;;;5093360;28;20562;-54
2021/12/16 09:39:50;;;;;;;17.67;13.30;;;7.60;99.90;;;;;;5093162;28;20487;-55
2021/12/16 09:42:17;;;;;;;22.63;12.47;;;7.60;99.90;;;;;;5093448;28;20538;-54
2021/12/16 09:44:44;;;;;;;18.20;12.70;;;7.60;99.90;;;;;;5093194;28;20471;-55
2021/12/16 09:47:14;;;;;;;19.63;13.10;;;7.70;99.90;;;;;;5092241;28;20443;-56
2021/12/16 09:49:42;;;;;;;16.50;12.00;;;7.60;99.90;;;;;;5092951;28;20550;-55
2021/12/16 09:52:13;;;;;;;19.93;12.03;;;7.70;99.90;;;;;;5092821;28;20482;-55
2021/12/16 09:54:42;;;;;;;21.67;13.40;;;7.60;99.90;;;;;;5093096;28;20465;-55
2021/12/16 09:57:10;;;;;;;21.97;13.77;;;7.50;99.90;;;;;;5092587;28;20694;-55
2021/12/16 09:59:38;;;;;;;22.17;14.47;;;7.40;99.90;;;;;;5092709;28;20499;-54
2021/12/16 10:02:09;;;;;;;19.50;13.80;;;7.30;99.90;;;;;;5092823;28;20452;-55
2021/12/16 10:04:42;;;;;;;20.83;12.47;;;7.40;99.90;;;;;;5092935;28;20546;-55
2021/12/16 10:07:14;;;;;;;23.60;12.80;;;7.40;99.90;;;;;;5092945;28;20451;-56
2021/12/16 10:09:43;;;;;;;16.63;12.53;;;7.40;99.90;;;;;;5092845;28;20876;-55
2021/12/16 10:12:14;;;;;;;19.30;12.70;;;7.50;99.90;;;;;;5092913;28;20445;-55
2021/12/16 10:15:04;;;;;;;21.03;14.13;;;7.50;99.90;;;;;;5092654;28;20427;-55
2021/12/16 10:17:34;;;;;;;21.97;14.10;;;7.50;99.90;;;;;;5092970;28;20460;-55
2021/12/16 10:20:09;;;;;;;18.17;12.87;;;7.70;99.90;;;;;;5092272;28;20486;-55
2021/12/16 10:22:42;;;;;;;19.20;13.17;;;7.60;99.90;;;;;;5092321;28;20479;-55
2021/12/16 10:25:28;;;;;;;17.90;12.93;;;7.60;99.90;;;;;;5092438;28;20518;-55
2021/12/16 10:28:10;;;;;;;18.90;12.97;;;7.70;99.90;;;;;;5092650;28;20430;-55
2021/12/16 10:30:45;;;;;;;20.10;13.00;;;7.70;99.90;;;;;;5092227;28;20496;-55
2021/12/16 10:33:21;;;;;;;19.30;13.47;;;7.80;99.90;;;;;;5092155;28;20438;-55
2021/12/16 10:35:50;;;;;;;19.00;12.40;;;7.90;99.90;;;;;;5092309;28;20503;-55
2021/12/16 10:38:21;;;;;;;17.70;12.57;;;7.90;99.90;;;;;;5091865;28;20566;-55
2021/12/16 10:40:50;;;;;;;17.13;11.90;;;7.90;99.90;;;;;;5092369;28;20691;-55
2021/12/16 10:43:27;;;;;;;17.80;13.10;;;7.90;99.90;;;;;;5092726;28;20828;-55
2021/12/16 10:45:59;;;;;;;24.30;13.13;;;7.90;99.90;;;;;;5092238;28;20514;-55
2021/12/16 10:48:29;;;;;;;21.73;12.70;;;7.80;99.90;;;;;;5092377;28;20518;-55
2021/12/16 10:51:08;;;;;;;22.57;15.03;;;7.70;99.90;;;;;;5091992;28;20513;-55
2021/12/16 10:53:52;;;;;;;20.13;12.90;;;7.60;99.90;;;;;;5092162;28;20515;-55
2021/12/16 10:56:24;;;;;;;21.17;13.50;;;7.70;99.90;;;;;;5091978;28;20419;-55
2021/12/16 10:58:54;;;;;;;20.23;14.60;;;7.80;99.90;;;;;;5093127;28;20511;-55
2021/12/16 11:01:59;;;;;;;18.80;12.90;;;7.80;99.90;;;;;;5096299;28;20980;-55
2021/12/16 11:04:41;;;;;;;18.37;12.47;;;7.80;99.90;;;;;;5064858;28;20443;-55
2021/12/16 11:07:12;;;;;;;17.23;12.23;;;7.90;99.90;;;;;;5096203;28;20447;-55
2021/12/16 11:09:54;;;;;;;22.77;14.30;;;7.90;99.90;;;;;;5096053;28;20416;-55
2021/12/16 11:12:35;;;;;;;22.70;14.70;;;7.70;99.90;;;;;;5095913;28;20428;-55
2021/12/16 11:15:09;;;;;;;24.33;14.23;;;7.60;99.90;;;;;;5095821;28;20423;-55
2021/12/16 11:17:38;;;;;;;19.37;13.90;;;7.60;99.90;;;;;;5095703;28;20510;-55
2021/12/16 11:20:20;;;;;;;21.07;13.53;;;7.60;99.90;;;;;;5095923;28;20483;-55
2021/12/16 11:22:49;;;;;;;20.13;14.53;;;7.50;99.90;;;;;;5095686;28;20434;-55
2021/12/16 11:25:21;;;;;;;22.03;12.80;;;7.30;99.90;;;;;;5095725;28;20440;-55
2021/12/16 11:27:52;;;;;;;22.03;14.13;;;7.30;99.90;;;;;;5095788;28;20428;-55
2021/12/16 11:30:30;;;;;;;18.07;12.30;;;7.30;99.90;;;;;;5095422;28;20546;-55
2021/12/16 11:33:06;;;;;;;20.07;13.30;;;7.40;99.90;;;;;;5095605;28;20501;-55
2021/12/16 11:35:40;;;;;;;21.80;14.17;;;7.60;99.90;;;;;;5095598;28;20846;-55
2021/12/16 11:38:15;;;;;;;22.70;14.83;;;7.60;99.90;;;;;;5095516;28;20485;-55
2021/12/16 11:41:06;;;;;;;19.20;13.50;;;7.60;99.90;;;;;;5095015;28;20546;-55
2021/12/16 11:43:44;;;;;;;26.27;14.60;;;7.60;99.90;;;;;;5095453;28;20428;-55
2021/12/16 11:46:18;;;;;;;21.70;14.00;;;7.70;99.90;;;;;;5095600;28;20937;-55
2021/12/16 11:48:46;;;;;;;23.23;13.27;;;7.70;99.90;;;;;;5095128;28;20515;-55
2021/12/16 11:51:16;;;;;;;21.93;14.93;;;7.70;99.90;;;;;;5095536;28;20466;-55
2021/12/16 11:53:52;;;;;;;25.10;15.37;;;7.70;99.90;;;;;;5095480;28;20408;-55
2021/12/16 11:56:32;;;;;;;20.83;13.40;;;7.70;99.90;;;;;;5095061;28;20434;-55
2021/12/16 11:58:59;;;;;;;24.37;13.57;;;7.70;99.90;;;;;;5095173;28;20526;-55
2021/12/16 12:01:27;;;;;;;20.73;13.60;;;7.80;99.90;;;;;;5095033;28;20493;-55
2021/12/16 12:04:02;;;;;;;21.07;13.53;;;7.80;99.90;;;;;;5095207;28;20807;-55
2021/12/16 12:06:32;;;;;;;22.37;13.80;;;7.90;99.90;;;;;;5094913;28;20432;-55
2021/12/16 12:09:01;;;;;;;21.13;14.20;;;8.00;99.90;;;;;;5094818;28;21393;-55
2021/12/16 12:11:31;;;;;;;19.50;12.23;;;8.10;99.90;;;;;;5094599;28;20547;-55
2021/12/16 12:14:01;;;;;;;21.87;13.37;;;8.10;99.90;;;;;;5095042;28;20428;-55
2021/12/16 12:16:33;;;;;;;19.03;11.97;;;8.10;99.90;;;;;;5094938;28;20450;-55
2021/12/16 12:19:07;;;;;;;20.17;13.10;;;8.30;99.90;;;;;;5094827;28;20438;-55
2021/12/16 12:21:37;;;;;;;21.50;13.60;;;8.30;99.90;;;;;;5094386;28;20608;-55
2021/12/16 12:24:12;;;;;;;17.47;12.60;;;8.20;99.90;;;;;;5094536;28;20428;-55
2021/12/16 12:26:44;;;;;;;20.73;13.73;;;8.50;99.90;;;;;;5094637;28;20806;-55
2021/12/16 12:29:13;;;;;;;17.97;12.83;;;8.50;99.90;;;;;;5094679;28;20826;-55
2021/12/16 12:31:43;;;;;;;21.47;13.30;;;8.60;99.90;;;;;;5094747;28;20550;-55
2021/12/16 12:34:11;;;;;;;21.30;12.50;;;8.50;99.90;;;;;;5094854;28;20861;-55
2021/12/16 12:36:38;;;;;;;26.50;13.80;;;8.50;99.90;;;;;;5094297;28;20934;-56
2021/12/16 12:39:07;;;;;;;23.37;13.60;;;8.40;99.90;;;;;;5094139;28;20516;-56
2021/12/16 12:41:35;;;;;;;22.00;11.83;;;8.50;99.90;;;;;;5094347;28;20493;-56
2021/12/16 12:44:05;;;;;;;21.43;14.83;;;8.60;99.90;;;;;;5094019;28;20896;-56
2021/12/16 12:46:34;;;;;;;17.30;11.83;;;8.70;99.90;;;;;;5094161;28;20530;-56
2021/12/16 12:49:04;;;;;;;25.27;14.40;;;8.70;99.90;;;;;;5094144;28;20447;-55
2021/12/16 12:51:34;;;;;;;18.33;12.33;;;8.70;99.90;;;;;;5093871;28;20459;-56
2021/12/16 12:54:22;;;;;;;21.93;13.57;;;8.80;99.90;;;;;;5094054;28;20438;-56
2021/12/16 12:56:50;;;;;;;15.47;11.80;;;8.90;99.90;;;;;;5094080;28;20861;-56
2021/12/16 12:59:19;;;;;;;21.13;12.50;;;;;;;;;;5093822;28;20451;-55
2021/12/16 13:01:49;;;;;;;19.40;12.10;;;8.40;99.90;;;;;;5094270;28;20479;-56
2021/12/16 13:04:21;;;;;;;19.43;12.43;;;8.40;99.90;;;;;;5094029;28;20432;-56
2021/12/16 13:06:57;;;;;;;17.27;13.00;;;8.30;99.90;;;;;;5093684;28;20509;-55
2021/12/16 13:09:38;;;;;;;17.90;12.07;;;8.50;99.90;;;;;;5093882;28;20780;-56
2021/12/16 13:12:36;;;;;;;18.57;13.83;;;8.60;99.90;;;;;;5093981;28;20509;-56
2021/12/16 13:15:21;;;;;;;19.10;12.20;;;8.80;99.90;;;;;;5093683;28;20432;-55
2021/12/16 13:23:49;;;;;;;15.93;13.20;;;9.00;99.90;;;;;;5093524;28;20939;-55
2021/12/16 13:26:39;;;;;;;18.37;12.97;;;8.70;99.90;;;;;;5093965;28;20436;-56
2021/12/16 13:29:13;;;;;;;18.77;13.70;;;8.70;99.90;;;;;;5093463;28;20467;-55
2021/12/16 13:31:51;;;;;;;18.60;12.60;;;8.70;99.90;;;;;;5093461;28;20470;-56
2021/12/16 13:34:26;;;;;;;20.40;13.60;;;8.60;99.90;;;;;;5093364;28;20772;-56
2021/12/16 13:36:57;;;;;;;25.63;14.37;;;8.60;99.90;;;;;;5093354;28;20504;-56
2021/12/16 13:39:29;;;;;;;20.10;13.13;;;8.70;99.90;;;;;;5093509;28;20428;-56
2021/12/16 13:42:04;;;;;;;20.40;13.50;;;8.80;99.90;;;;;;5093191;28;20464;-56
2021/12/16 13:44:45;;;;;;;19.50;13.93;;;8.60;99.90;;;;;;5093550;28;20514;-55
2021/12/16 13:47:25;;;;;;;21.93;13.43;;;8.50;99.90;;;;;;5093363;28;20456;-55
2021/12/16 13:58:42;;;;;;;22.30;12.33;;;8.20;99.90;;;;;;5092818;28;20495;-56
2021/12/16 14:01:28;;;;;;;19.57;12.77;;;8.20;99.90;;;;;;5093144;28;20498;-55
2021/12/16 14:04:13;;;;;;;24.73;13.97;;;8.20;99.90;;;;;;5093021;28;20428;-56
2021/12/16 14:06:56;;;;;;;21.50;14.87;;;8.20;99.90;;;;;;5093028;28;20908;-55
2021/12/16 14:09:33;;;;;;;16.57;12.67;;;8.10;99.90;;;;;;5092840;28;20452;-55
2021/12/16 14:15:17;;;;;;;15.33;12.33;;;8.10;99.90;;;;;;5030687;28;20943;-56
2021/12/16 14:17:55;;;;;;;18.90;14.17;;;8.30;99.90;;;;;;5030532;28;20501;-55
2021/12/16 14:23:24;;;;;;;22.07;13.50;;;8.30;99.90;;;;;;5092854;28;20407;-56
2021/12/16 14:26:15;;;;;;;23.80;13.27;;;8.40;99.90;;;;;;5092997;28;20850;-55
2021/12/16 14:37:20;;;;;;;20.83;13.00;;;8.30;99.90;;;;;;5029777;28;20462;-55
2021/12/16 14:40:02;;;;;;;19.20;13.47;;;8.40;99.90;;;;;;5029632;28;20568;-55
2021/12/16 14:42:45;;;;;;;23.50;13.73;;;8.30;99.90;;;;;;5065699;28;20788;-55
2021/12/16 14:45:25;;;;;;;21.70;13.20;;;8.20;99.90;;;;;;5092024;28;20489;-56
2021/12/16 14:48:21;;;;;;;23.63;14.80;;;8.10;99.90;;;;;;5092503;28;20459;-55
2021/12/16 14:50:51;;;;;;;17.60;13.43;;;8.20;99.90;;;;;;5092003;28;20982;-56
2021/12/16 14:53:31;;;;;;;21.97;12.63;;;8.30;99.90;;;;;;5091858;28;20451;-56
2021/12/16 14:56:02;;;;;;;25.47;12.93;;;8.20;99.90;;;;;;5091991;28;20511;-56
2021/12/16 14:58:29;;;;;;;16.63;13.07;;;8.20;99.90;;;;;;5092071;28;20475;-56
2021/12/16 15:01:01;;;;;;;19.73;13.50;;;8.20;99.90;;;;;;5091931;28;20487;-56
2021/12/16 15:03:34;;;;;;;19.00;13.03;;;8.20;99.90;;;;;;5092582;28;20428;-56
2021/12/16 15:06:04;;;;;;;16.93;12.80;;;8.20;99.90;;;;;;5092335;28;20438;-55
2021/12/16 15:08:42;;;;;;;23.83;12.90;;;8.10;99.90;;;;;;5092349;28;20463;-56
2021/12/16 15:11:13;;;;;;;18.20;13.37;;;8.10;99.90;;;;;;5091996;28;20942;-56
2021/12/16 15:13:45;;;;;;;18.17;13.60;;;8.10;99.90;;;;;;5092300;28;20438;-56
2021/12/16 15:16:41;;;;;;;21.03;13.60;;;8.10;99.90;;;;;;5092552;28;20459;-56
2021/12/16 15:36:30;;;;;;;18.60;13.07;;;7.90;99.90;;;;;;5092064;28;20407;-55